sensor_id;sensor_type;location;lat;lon;timestamp;temperature;humidity
25616;DHT22;13482;48.234;13.006;2024-02-28T00:02:08;6.00;69.10
25616;DHT22;13482;48.234;13.006;2024-02-28T00:04:35;5.90;69.20
25616;DHT22;13482;48.234;13.006;2024-02-28T00:07:03;5.90;69.30
25616;DHT22;13482;48.234;13.006;2024-02-28T00:09:30;5.80;69.30
25616;DHT22;13482;48.234;13.006;2024-02-28T00:11:58;5.80;69.30
25616;DHT22;13482;48.234;13.006;2024-02-28T00:14:25;5.80;69.40
25616;DHT22;13482;48.234;13.006;2024-02-28T00:16:52;5.70;69.40
25616;DHT22;13482;48.234;13.006;2024-02-28T00:19:20;5.70;69.50
25616;DHT22;13482;48.234;13.006;2024-02-28T00:21:49;5.70;69.60
25616;DHT22;13482;48.234;13.006;2024-02-28T00:24:16;5.60;69.70
25616;DHT22;13482;48.234;13.006;2024-02-28T00:26:44;5.60;69.70
25616;DHT22;13482;48.234;13.006;2024-02-28T00:29:12;5.60;69.80
25616;DHT22;13482;48.234;13.006;2024-02-28T00:31:40;5.50;69.90
25616;DHT22;13482;48.234;13.006;2024-02-28T00:34:07;5.50;69.80
25616;DHT22;13482;48.234;13.006;2024-02-28T00:36:36;5.50;69.90
25616;DHT22;13482;48.234;13.006;2024-02-28T00:39:21;5.50;70.10
25616;DHT22;13482;48.234;13.006;2024-02-28T00:41:48;5.50;70.10
25616;DHT22;13482;48.234;13.006;2024-02-28T00:44:15;5.60;70.10
25616;DHT22;13482;48.234;13.006;2024-02-28T00:46:43;5.60;70.20
25616;DHT22;13482;48.234;13.006;2024-02-28T00:49:10;5.60;70.20
25616;DHT22;13482;48.234;13.006;2024-02-28T00:51:38;5.60;70.20
25616;DHT22;13482;48.234;13.006;2024-02-28T00:54:05;5.60;70.20
25616;DHT22;13482;48.234;13.006;2024-02-28T00:56:33;5.60;70.20
25616;DHT22;13482;48.234;13.006;2024-02-28T00:59:00;5.60;70.10
25616;DHT22;13482;48.234;13.006;2024-02-28T01:01:28;5.60;70.20
25616;DHT22;13482;48.234;13.006;2024-02-28T01:03:55;5.60;70.30
25616;DHT22;13482;48.234;13.006;2024-02-28T01:06:22;5.60;70.30
25616;DHT22;13482;48.234;13.006;2024-02-28T01:08:50;5.60;70.50
25616;DHT22;13482;48.234;13.006;2024-02-28T01:11:17;5.60;70.50
25616;DHT22;13482;48.234;13.006;2024-02-28T01:13:45;5.60;70.50
25616;DHT22;13482;48.234;13.006;2024-02-28T01:16:12;5.60;70.60
25616;DHT22;13482;48.234;13.006;2024-02-28T01:18:39;5.60;70.70
25616;DHT22;13482;48.234;13.006;2024-02-28T01:21:07;5.60;70.70
25616;DHT22;13482;48.234;13.006;2024-02-28T01:23:35;5.60;70.70
25616;DHT22;13482;48.234;13.006;2024-02-28T01:26:04;5.60;70.80
25616;DHT22;13482;48.234;13.006;2024-02-28T01:28:33;5.60;70.80
25616;DHT22;13482;48.234;13.006;2024-02-28T01:31:00;5.60;70.90
25616;DHT22;13482;48.234;13.006;2024-02-28T01:33:28;5.70;71.00
25616;DHT22;13482;48.234;13.006;2024-02-28T01:35:56;5.70;71.10
25616;DHT22;13482;48.234;13.006;2024-02-28T01:38:25;5.70;71.20
25616;DHT22;13482;48.234;13.006;2024-02-28T01:40:54;5.80;71.30
25616;DHT22;13482;48.234;13.006;2024-02-28T01:43:21;5.80;71.40
25616;DHT22;13482;48.234;13.006;2024-02-28T01:45:50;5.80;71.50
25616;DHT22;13482;48.234;13.006;2024-02-28T01:48:18;5.90;71.50
25616;DHT22;13482;48.234;13.006;2024-02-28T01:50:46;5.90;71.50
25616;DHT22;13482;48.234;13.006;2024-02-28T01:53:14;5.90;71.60
25616;DHT22;13482;48.234;13.006;2024-02-28T01:55:44;6.00;71.50
25616;DHT22;13482;48.234;13.006;2024-02-28T01:58:12;6.00;71.40
25616;DHT22;13482;48.234;13.006;2024-02-28T02:00:40;6.00;71.40
25616;DHT22;13482;48.234;13.006;2024-02-28T02:03:07;6.00;71.40
25616;DHT22;13482;48.234;13.006;2024-02-28T02:05:34;6.00;71.30
25616;DHT22;13482;48.234;13.006;2024-02-28T02:08:02;6.00;71.30
25616;DHT22;13482;48.234;13.006;2024-02-28T02:10:30;6.00;71.30
25616;DHT22;13482;48.234;13.006;2024-02-28T02:13:05;6.00;71.20
25616;DHT22;13482;48.234;13.006;2024-02-28T02:15:32;6.00;71.30
25616;DHT22;13482;48.234;13.006;2024-02-28T02:18:00;6.00;71.20
25616;DHT22;13482;48.234;13.006;2024-02-28T02:20:30;6.00;71.20
25616;DHT22;13482;48.234;13.006;2024-02-28T02:23:01;6.00;71.20
25616;DHT22;13482;48.234;13.006;2024-02-28T02:25:29;6.00;71.20
25616;DHT22;13482;48.234;13.006;2024-02-28T02:27:56;6.00;71.30
25616;DHT22;13482;48.234;13.006;2024-02-28T02:30:23;6.00;71.30
25616;DHT22;13482;48.234;13.006;2024-02-28T02:32:51;6.00;71.40
25616;DHT22;13482;48.234;13.006;2024-02-28T02:35:18;5.90;71.40
25616;DHT22;13482;48.234;13.006;2024-02-28T02:37:46;5.90;71.40
25616;DHT22;13482;48.234;13.006;2024-02-28T02:40:15;5.90;71.30
25616;DHT22;13482;48.234;13.006;2024-02-28T02:42:42;5.90;71.30
25616;DHT22;13482;48.234;13.006;2024-02-28T02:45:10;5.90;71.30
25616;DHT22;13482;48.234;13.006;2024-02-28T02:47:37;5.80;71.30
25616;DHT22;13482;48.234;13.006;2024-02-28T02:50:05;5.80;71.20
25616;DHT22;13482;48.234;13.006;2024-02-28T02:52:33;5.80;71.30
25616;DHT22;13482;48.234;13.006;2024-02-28T02:55:01;5.80;71.30
25616;DHT22;13482;48.234;13.006;2024-02-28T02:57:28;5.80;71.40
25616;DHT22;13482;48.234;13.006;2024-02-28T02:59:58;5.80;71.40
25616;DHT22;13482;48.234;13.006;2024-02-28T03:02:25;5.70;71.40
25616;DHT22;13482;48.234;13.006;2024-02-28T03:04:52;5.70;71.40
25616;DHT22;13482;48.234;13.006;2024-02-28T03:07:20;5.70;71.40
25616;DHT22;13482;48.234;13.006;2024-02-28T03:09:47;5.70;71.30
25616;DHT22;13482;48.234;13.006;2024-02-28T03:12:15;5.70;71.20
25616;DHT22;13482;48.234;13.006;2024-02-28T03:14:42;5.70;71.10
25616;DHT22;13482;48.234;13.006;2024-02-28T03:17:09;5.60;71.00
25616;DHT22;13482;48.234;13.006;2024-02-28T03:19:37;5.60;70.80
25616;DHT22;13482;48.234;13.006;2024-02-28T03:22:05;5.60;70.80
25616;DHT22;13482;48.234;13.006;2024-02-28T03:24:33;5.60;70.70
25616;DHT22;13482;48.234;13.006;2024-02-28T03:27:02;5.50;70.50
25616;DHT22;13482;48.234;13.006;2024-02-28T03:29:30;5.50;70.40
25616;DHT22;13482;48.234;13.006;2024-02-28T03:31:58;5.40;70.50
25616;DHT22;13482;48.234;13.006;2024-02-28T03:34:26;5.40;70.60
25616;DHT22;13482;48.234;13.006;2024-02-28T03:36:53;5.30;70.80
25616;DHT22;13482;48.234;13.006;2024-02-28T03:39:20;5.30;70.90
25616;DHT22;13482;48.234;13.006;2024-02-28T03:41:48;5.30;70.90
25616;DHT22;13482;48.234;13.006;2024-02-28T03:44:15;5.20;70.90
25616;DHT22;13482;48.234;13.006;2024-02-28T03:46:43;5.20;71.00
25616;DHT22;13482;48.234;13.006;2024-02-28T03:49:10;5.20;71.00
25616;DHT22;13482;48.234;13.006;2024-02-28T03:51:40;5.10;71.20
25616;DHT22;13482;48.234;13.006;2024-02-28T03:54:08;5.10;71.20
25616;DHT22;13482;48.234;13.006;2024-02-28T03:56:36;5.10;71.20
25616;DHT22;13482;48.234;13.006;2024-02-28T03:59:04;5.10;71.30
25616;DHT22;13482;48.234;13.006;2024-02-28T04:01:31;5.10;71.40
25616;DHT22;13482;48.234;13.006;2024-02-28T04:03:59;5.10;71.40
25616;DHT22;13482;48.234;13.006;2024-02-28T04:06:27;5.10;71.50
25616;DHT22;13482;48.234;13.006;2024-02-28T04:08:54;5.10;71.50
25616;DHT22;13482;48.234;13.006;2024-02-28T04:11:21;5.10;71.60
25616;DHT22;13482;48.234;13.006;2024-02-28T04:13:49;5.10;71.60
25616;DHT22;13482;48.234;13.006;2024-02-28T04:16:16;5.10;71.60
25616;DHT22;13482;48.234;13.006;2024-02-28T04:18:44;5.10;71.70
25616;DHT22;13482;48.234;13.006;2024-02-28T04:21:11;5.10;71.80
25616;DHT22;13482;48.234;13.006;2024-02-28T04:23:38;5.10;71.90
25616;DHT22;13482;48.234;13.006;2024-02-28T04:26:06;5.20;71.90
25616;DHT22;13482;48.234;13.006;2024-02-28T04:28:33;5.20;72.00
25616;DHT22;13482;48.234;13.006;2024-02-28T04:31:01;5.20;71.90
25616;DHT22;13482;48.234;13.006;2024-02-28T04:33:28;5.20;71.90
25616;DHT22;13482;48.234;13.006;2024-02-28T04:35:55;5.20;72.00
25616;DHT22;13482;48.234;13.006;2024-02-28T04:38:23;5.20;72.10
25616;DHT22;13482;48.234;13.006;2024-02-28T04:40:50;5.30;72.00
25616;DHT22;13482;48.234;13.006;2024-02-28T04:43:17;5.30;72.10
25616;DHT22;13482;48.234;13.006;2024-02-28T04:45:45;5.30;72.10
25616;DHT22;13482;48.234;13.006;2024-02-28T04:48:12;5.30;72.20
25616;DHT22;13482;48.234;13.006;2024-02-28T04:50:40;5.30;72.30
25616;DHT22;13482;48.234;13.006;2024-02-28T04:53:10;5.40;72.40
25616;DHT22;13482;48.234;13.006;2024-02-28T04:55:37;5.40;72.40
25616;DHT22;13482;48.234;13.006;2024-02-28T04:58:21;5.40;72.40
25616;DHT22;13482;48.234;13.006;2024-02-28T05:00:49;5.40;72.30
25616;DHT22;13482;48.234;13.006;2024-02-28T05:03:17;5.40;72.30
25616;DHT22;13482;48.234;13.006;2024-02-28T05:05:45;5.40;72.30
25616;DHT22;13482;48.234;13.006;2024-02-28T05:08:12;5.50;72.30
25616;DHT22;13482;48.234;13.006;2024-02-28T05:10:39;5.50;72.20
25616;DHT22;13482;48.234;13.006;2024-02-28T05:13:07;5.50;72.30
25616;DHT22;13482;48.234;13.006;2024-02-28T05:15:34;5.50;72.20
25616;DHT22;13482;48.234;13.006;2024-02-28T05:18:02;5.50;72.10
25616;DHT22;13482;48.234;13.006;2024-02-28T05:20:29;5.60;72.20
25616;DHT22;13482;48.234;13.006;2024-02-28T05:22:57;5.60;72.20
25616;DHT22;13482;48.234;13.006;2024-02-28T05:25:24;5.60;72.20
25616;DHT22;13482;48.234;13.006;2024-02-28T05:27:51;5.60;72.20
25616;DHT22;13482;48.234;13.006;2024-02-28T05:30:19;5.60;72.20
25616;DHT22;13482;48.234;13.006;2024-02-28T05:32:46;5.60;72.20
25616;DHT22;13482;48.234;13.006;2024-02-28T05:35:14;5.60;72.30
25616;DHT22;13482;48.234;13.006;2024-02-28T05:37:41;5.60;72.20
25616;DHT22;13482;48.234;13.006;2024-02-28T05:40:09;5.60;72.20
25616;DHT22;13482;48.234;13.006;2024-02-28T05:42:39;5.60;72.30
25616;DHT22;13482;48.234;13.006;2024-02-28T05:45:07;5.60;72.40
25616;DHT22;13482;48.234;13.006;2024-02-28T05:47:35;5.60;72.40
25616;DHT22;13482;48.234;13.006;2024-02-28T05:50:03;5.60;72.50
25616;DHT22;13482;48.234;13.006;2024-02-28T05:52:32;5.60;72.50
25616;DHT22;13482;48.234;13.006;2024-02-28T05:55:00;5.60;72.50
25616;DHT22;13482;48.234;13.006;2024-02-28T05:57:27;5.60;72.40
25616;DHT22;13482;48.234;13.006;2024-02-28T05:59:55;5.60;72.60
25616;DHT22;13482;48.234;13.006;2024-02-28T06:02:22;5.60;72.70
25616;DHT22;13482;48.234;13.006;2024-02-28T06:04:49;5.70;72.90
25616;DHT22;13482;48.234;13.006;2024-02-28T06:07:17;5.70;72.90
25616;DHT22;13482;48.234;13.006;2024-02-28T06:09:44;5.70;73.10
25616;DHT22;13482;48.234;13.006;2024-02-28T06:12:11;5.70;73.20
25616;DHT22;13482;48.234;13.006;2024-02-28T06:14:39;5.80;73.20
25616;DHT22;13482;48.234;13.006;2024-02-28T06:17:06;5.80;73.10
25616;DHT22;13482;48.234;13.006;2024-02-28T06:19:34;5.80;73.20
25616;DHT22;13482;48.234;13.006;2024-02-28T06:22:01;5.90;73.20
25616;DHT22;13482;48.234;13.006;2024-02-28T06:24:29;5.90;73.10
25616;DHT22;13482;48.234;13.006;2024-02-28T06:26:56;6.00;73.10
25616;DHT22;13482;48.234;13.006;2024-02-28T06:29:24;6.00;73.10
25616;DHT22;13482;48.234;13.006;2024-02-28T06:31:51;6.00;73.10
25616;DHT22;13482;48.234;13.006;2024-02-28T06:34:19;6.10;73.20
25616;DHT22;13482;48.234;13.006;2024-02-28T06:36:51;6.10;73.20
25616;DHT22;13482;48.234;13.006;2024-02-28T06:39:19;6.10;73.30
25616;DHT22;13482;48.234;13.006;2024-02-28T06:41:46;6.20;73.40
25616;DHT22;13482;48.234;13.006;2024-02-28T06:44:14;6.20;73.40
25616;DHT22;13482;48.234;13.006;2024-02-28T06:46:41;6.20;73.50
25616;DHT22;13482;48.234;13.006;2024-02-28T06:49:08;6.30;73.50
25616;DHT22;13482;48.234;13.006;2024-02-28T06:51:36;6.40;73.60
25616;DHT22;13482;48.234;13.006;2024-02-28T06:54:04;6.40;73.60
25616;DHT22;13482;48.234;13.006;2024-02-28T06:56:31;6.40;73.60
25616;DHT22;13482;48.234;13.006;2024-02-28T06:58:59;6.40;73.60
25616;DHT22;13482;48.234;13.006;2024-02-28T07:01:26;6.50;73.70
25616;DHT22;13482;48.234;13.006;2024-02-28T07:03:54;6.50;73.70
25616;DHT22;13482;48.234;13.006;2024-02-28T07:06:24;6.50;73.70
25616;DHT22;13482;48.234;13.006;2024-02-28T07:08:52;6.60;73.60
25616;DHT22;13482;48.234;13.006;2024-02-28T07:11:19;6.60;73.50
25616;DHT22;13482;48.234;13.006;2024-02-28T07:13:48;6.60;73.60
25616;DHT22;13482;48.234;13.006;2024-02-28T07:16:16;6.60;73.50
25616;DHT22;13482;48.234;13.006;2024-02-28T07:18:43;6.70;73.60
25616;DHT22;13482;48.234;13.006;2024-02-28T07:21:10;6.70;73.60
25616;DHT22;13482;48.234;13.006;2024-02-28T07:23:41;6.70;73.60
25616;DHT22;13482;48.234;13.006;2024-02-28T07:26:13;6.80;73.60
25616;DHT22;13482;48.234;13.006;2024-02-28T07:28:53;6.80;73.60
25616;DHT22;13482;48.234;13.006;2024-02-28T07:31:20;6.80;73.60
25616;DHT22;13482;48.234;13.006;2024-02-28T07:33:47;6.90;73.70
25616;DHT22;13482;48.234;13.006;2024-02-28T07:36:15;6.90;73.70
25616;DHT22;13482;48.234;13.006;2024-02-28T07:38:44;7.00;73.70
25616;DHT22;13482;48.234;13.006;2024-02-28T07:41:12;7.00;73.70
25616;DHT22;13482;48.234;13.006;2024-02-28T07:43:42;7.00;73.70
25616;DHT22;13482;48.234;13.006;2024-02-28T07:46:10;7.10;73.80
25616;DHT22;13482;48.234;13.006;2024-02-28T07:48:39;7.10;73.80
25616;DHT22;13482;48.234;13.006;2024-02-28T07:51:10;7.10;73.70
25616;DHT22;13482;48.234;13.006;2024-02-28T07:53:38;7.20;73.80
25616;DHT22;13482;48.234;13.006;2024-02-28T07:56:05;7.20;73.90
25616;DHT22;13482;48.234;13.006;2024-02-28T07:58:33;7.30;73.80
25616;DHT22;13482;48.234;13.006;2024-02-28T08:01:00;7.30;73.80
25616;DHT22;13482;48.234;13.006;2024-02-28T08:03:31;7.30;73.80
25616;DHT22;13482;48.234;13.006;2024-02-28T08:05:59;7.40;74.00
25616;DHT22;13482;48.234;13.006;2024-02-28T08:08:26;7.40;74.00
25616;DHT22;13482;48.234;13.006;2024-02-28T08:10:53;7.40;74.00
25616;DHT22;13482;48.234;13.006;2024-02-28T08:13:21;7.50;73.90
25616;DHT22;13482;48.234;13.006;2024-02-28T08:15:49;7.50;73.90
25616;DHT22;13482;48.234;13.006;2024-02-28T08:18:16;7.60;74.00
25616;DHT22;13482;48.234;13.006;2024-02-28T08:20:44;7.60;74.00
25616;DHT22;13482;48.234;13.006;2024-02-28T08:23:11;7.70;74.00
25616;DHT22;13482;48.234;13.006;2024-02-28T08:25:39;7.70;74.00
25616;DHT22;13482;48.234;13.006;2024-02-28T08:28:06;7.80;74.00
25616;DHT22;13482;48.234;13.006;2024-02-28T08:30:34;7.80;74.00
25616;DHT22;13482;48.234;13.006;2024-02-28T08:33:01;7.80;74.00
25616;DHT22;13482;48.234;13.006;2024-02-28T08:35:29;7.90;74.10
25616;DHT22;13482;48.234;13.006;2024-02-28T08:37:56;7.90;74.10
25616;DHT22;13482;48.234;13.006;2024-02-28T08:40:23;8.00;74.10
25616;DHT22;13482;48.234;13.006;2024-02-28T08:42:51;8.00;74.10
25616;DHT22;13482;48.234;13.006;2024-02-28T08:45:20;8.10;74.10
25616;DHT22;13482;48.234;13.006;2024-02-28T08:47:49;8.10;74.00
25616;DHT22;13482;48.234;13.006;2024-02-28T08:50:17;8.10;74.00
25616;DHT22;13482;48.234;13.006;2024-02-28T08:52:45;8.20;74.00
25616;DHT22;13482;48.234;13.006;2024-02-28T08:55:13;8.20;74.00
25616;DHT22;13482;48.234;13.006;2024-02-28T08:57:40;8.30;74.00
25616;DHT22;13482;48.234;13.006;2024-02-28T09:00:08;8.30;74.10
25616;DHT22;13482;48.234;13.006;2024-02-28T09:02:36;8.40;74.10
25616;DHT22;13482;48.234;13.006;2024-02-28T09:05:04;8.40;74.00
25616;DHT22;13482;48.234;13.006;2024-02-28T09:07:32;8.50;74.00
25616;DHT22;13482;48.234;13.006;2024-02-28T09:10:06;8.50;74.10
25616;DHT22;13482;48.234;13.006;2024-02-28T09:12:34;8.60;74.10
25616;DHT22;13482;48.234;13.006;2024-02-28T09:15:01;8.70;74.10
25616;DHT22;13482;48.234;13.006;2024-02-28T09:17:29;8.70;74.10
25616;DHT22;13482;48.234;13.006;2024-02-28T09:19:58;8.80;74.10
25616;DHT22;13482;48.234;13.006;2024-02-28T09:22:28;8.80;74.00
25616;DHT22;13482;48.234;13.006;2024-02-28T09:24:55;8.90;74.00
25616;DHT22;13482;48.234;13.006;2024-02-28T09:27:23;8.90;74.00
25616;DHT22;13482;48.234;13.006;2024-02-28T09:29:52;9.00;74.10
25616;DHT22;13482;48.234;13.006;2024-02-28T09:32:19;9.00;74.10
25616;DHT22;13482;48.234;13.006;2024-02-28T09:34:47;9.10;74.10
25616;DHT22;13482;48.234;13.006;2024-02-28T09:37:14;9.20;74.00
25616;DHT22;13482;48.234;13.006;2024-02-28T09:39:45;9.20;74.00
25616;DHT22;13482;48.234;13.006;2024-02-28T09:42:12;9.30;74.00
25616;DHT22;13482;48.234;13.006;2024-02-28T09:44:43;9.30;74.00
25616;DHT22;13482;48.234;13.006;2024-02-28T09:47:10;9.40;74.00
25616;DHT22;13482;48.234;13.006;2024-02-28T09:49:38;9.40;74.00
25616;DHT22;13482;48.234;13.006;2024-02-28T09:52:06;9.50;73.90
25616;DHT22;13482;48.234;13.006;2024-02-28T09:54:34;9.60;73.90
25616;DHT22;13482;48.234;13.006;2024-02-28T09:57:01;9.70;73.90
25616;DHT22;13482;48.234;13.006;2024-02-28T09:59:32;9.70;73.90
25616;DHT22;13482;48.234;13.006;2024-02-28T10:02:20;9.80;73.70
25616;DHT22;13482;48.234;13.006;2024-02-28T10:04:48;9.80;73.70
25616;DHT22;13482;48.234;13.006;2024-02-28T10:07:17;9.90;73.70
25616;DHT22;13482;48.234;13.006;2024-02-28T10:09:44;9.90;73.60
25616;DHT22;13482;48.234;13.006;2024-02-28T10:12:14;10.00;73.60
25616;DHT22;13482;48.234;13.006;2024-02-28T10:14:41;10.10;73.60
25616;DHT22;13482;48.234;13.006;2024-02-28T10:17:09;10.10;73.60
25616;DHT22;13482;48.234;13.006;2024-02-28T10:19:36;10.10;73.50
25616;DHT22;13482;48.234;13.006;2024-02-28T10:22:06;10.20;73.40
25616;DHT22;13482;48.234;13.006;2024-02-28T10:24:34;10.30;73.40
25616;DHT22;13482;48.234;13.006;2024-02-28T10:27:02;10.30;73.40
25616;DHT22;13482;48.234;13.006;2024-02-28T10:29:30;10.40;73.50
25616;DHT22;13482;48.234;13.006;2024-02-28T10:32:00;10.40;73.40
25616;DHT22;13482;48.234;13.006;2024-02-28T10:34:30;10.50;73.10
25616;DHT22;13482;48.234;13.006;2024-02-28T10:36:58;10.50;72.90
25616;DHT22;13482;48.234;13.006;2024-02-28T10:39:28;10.60;72.80
25616;DHT22;13482;48.234;13.006;2024-02-28T10:41:59;10.60;72.80
25616;DHT22;13482;48.234;13.006;2024-02-28T10:44:29;10.70;72.70
25616;DHT22;13482;48.234;13.006;2024-02-28T10:47:00;10.70;72.60
25616;DHT22;13482;48.234;13.006;2024-02-28T10:49:31;10.70;72.60
25616;DHT22;13482;48.234;13.006;2024-02-28T10:51:59;10.70;72.50
25616;DHT22;13482;48.234;13.006;2024-02-28T10:54:29;10.80;72.50
25616;DHT22;13482;48.234;13.006;2024-02-28T10:56:58;10.80;72.50
25616;DHT22;13482;48.234;13.006;2024-02-28T10:59:28;10.80;72.50
25616;DHT22;13482;48.234;13.006;2024-02-28T11:01:57;10.90;72.50
25616;DHT22;13482;48.234;13.006;2024-02-28T11:04:24;10.90;72.50
25616;DHT22;13482;48.234;13.006;2024-02-28T11:06:56;10.90;72.40
25616;DHT22;13482;48.234;13.006;2024-02-28T11:09:25;11.00;72.30
25616;DHT22;13482;48.234;13.006;2024-02-28T11:11:55;11.00;72.30
25616;DHT22;13482;48.234;13.006;2024-02-28T11:14:23;11.00;72.10
25616;DHT22;13482;48.234;13.006;2024-02-28T11:17:04;11.10;72.00
25616;DHT22;13482;48.234;13.006;2024-02-28T11:19:33;11.10;72.00
25616;DHT22;13482;48.234;13.006;2024-02-28T11:22:04;11.10;72.00
25616;DHT22;13482;48.234;13.006;2024-02-28T11:24:34;11.10;72.00
25616;DHT22;13482;48.234;13.006;2024-02-28T11:27:05;11.20;72.00
25616;DHT22;13482;48.234;13.006;2024-02-28T11:29:34;11.20;72.00
25616;DHT22;13482;48.234;13.006;2024-02-28T11:32:01;11.20;72.00
25616;DHT22;13482;48.234;13.006;2024-02-28T11:34:28;11.30;71.90
25616;DHT22;13482;48.234;13.006;2024-02-28T11:36:56;11.30;71.80
25616;DHT22;13482;48.234;13.006;2024-02-28T11:39:26;11.30;71.70
25616;DHT22;13482;48.234;13.006;2024-02-28T11:41:54;11.30;71.60
25616;DHT22;13482;48.234;13.006;2024-02-28T11:44:25;11.30;71.70
25616;DHT22;13482;48.234;13.006;2024-02-28T11:46:52;11.40;71.60
25616;DHT22;13482;48.234;13.006;2024-02-28T11:49:20;11.30;71.70
25616;DHT22;13482;48.234;13.006;2024-02-28T11:51:49;11.40;71.70
25616;DHT22;13482;48.234;13.006;2024-02-28T11:54:19;11.40;71.80
25616;DHT22;13482;48.234;13.006;2024-02-28T11:56:47;11.40;71.70
25616;DHT22;13482;48.234;13.006;2024-02-28T11:59:15;11.50;71.60
25616;DHT22;13482;48.234;13.006;2024-02-28T12:01:45;11.50;71.60
25616;DHT22;13482;48.234;13.006;2024-02-28T12:04:14;11.50;71.60
25616;DHT22;13482;48.234;13.006;2024-02-28T12:06:41;11.50;71.50
25616;DHT22;13482;48.234;13.006;2024-02-28T12:09:13;11.60;71.60
25616;DHT22;13482;48.234;13.006;2024-02-28T12:11:53;11.60;71.60
25616;DHT22;13482;48.234;13.006;2024-02-28T12:14:21;11.60;71.50
25616;DHT22;13482;48.234;13.006;2024-02-28T12:20:19;11.70;71.50
25616;DHT22;13482;48.234;13.006;2024-02-28T12:22:49;11.70;71.40
25616;DHT22;13482;48.234;13.006;2024-02-28T12:25:21;11.70;71.40
25616;DHT22;13482;48.234;13.006;2024-02-28T12:27:49;11.70;71.30
25616;DHT22;13482;48.234;13.006;2024-02-28T12:30:16;11.70;71.30
25616;DHT22;13482;48.234;13.006;2024-02-28T12:54:15;11.90;70.90
25616;DHT22;13482;48.234;13.006;2024-02-28T12:56:45;11.90;70.90
25616;DHT22;13482;48.234;13.006;2024-02-28T12:59:13;11.90;70.80
25616;DHT22;13482;48.234;13.006;2024-02-28T13:01:44;11.90;70.80
25616;DHT22;13482;48.234;13.006;2024-02-28T13:04:15;11.90;70.70
25616;DHT22;13482;48.234;13.006;2024-02-28T13:06:45;11.90;70.80
25616;DHT22;13482;48.234;13.006;2024-02-28T13:09:13;11.90;70.70
25616;DHT22;13482;48.234;13.006;2024-02-28T13:11:42;11.90;70.70
25616;DHT22;13482;48.234;13.006;2024-02-28T13:14:09;11.90;70.80
25616;DHT22;13482;48.234;13.006;2024-02-28T13:16:38;12.00;70.70
25616;DHT22;13482;48.234;13.006;2024-02-28T13:19:09;12.00;70.70
25616;DHT22;13482;48.234;13.006;2024-02-28T13:21:37;12.00;70.70
25616;DHT22;13482;48.234;13.006;2024-02-28T13:24:26;12.00;70.60
25616;DHT22;13482;48.234;13.006;2024-02-28T13:26:56;12.00;70.60
25616;DHT22;13482;48.234;13.006;2024-02-28T13:29:37;12.00;70.70
25616;DHT22;13482;48.234;13.006;2024-02-28T13:32:08;12.10;70.60
25616;DHT22;13482;48.234;13.006;2024-02-28T13:34:36;12.10;70.60
25616;DHT22;13482;48.234;13.006;2024-02-28T13:37:04;12.10;70.60
25616;DHT22;13482;48.234;13.006;2024-02-28T13:39:31;12.10;70.50
25616;DHT22;13482;48.234;13.006;2024-02-28T13:42:02;12.10;70.40
25616;DHT22;13482;48.234;13.006;2024-02-28T13:44:33;12.10;70.40
25616;DHT22;13482;48.234;13.006;2024-02-28T13:47:01;12.10;70.40
25616;DHT22;13482;48.234;13.006;2024-02-28T13:49:30;12.10;70.30
25616;DHT22;13482;48.234;13.006;2024-02-28T13:51:57;12.10;70.30
25616;DHT22;13482;48.234;13.006;2024-02-28T13:54:27;12.10;70.30
25616;DHT22;13482;48.234;13.006;2024-02-28T13:56:55;12.10;70.30
25616;DHT22;13482;48.234;13.006;2024-02-28T13:59:22;12.10;70.20
25616;DHT22;13482;48.234;13.006;2024-02-28T14:01:51;12.10;70.20
25616;DHT22;13482;48.234;13.006;2024-02-28T14:04:18;12.00;70.30
25616;DHT22;13482;48.234;13.006;2024-02-28T14:06:49;12.10;70.30
25616;DHT22;13482;48.234;13.006;2024-02-28T14:09:16;12.10;70.30
25616;DHT22;13482;48.234;13.006;2024-02-28T14:11:44;12.10;70.30
25616;DHT22;13482;48.234;13.006;2024-02-28T14:14:12;12.10;70.30
25616;DHT22;13482;48.234;13.006;2024-02-28T14:16:41;12.10;70.30
25616;DHT22;13482;48.234;13.006;2024-02-28T14:19:09;12.10;70.30
25616;DHT22;13482;48.234;13.006;2024-02-28T14:21:37;12.10;70.30
25616;DHT22;13482;48.234;13.006;2024-02-28T14:24:08;12.10;70.10
25616;DHT22;13482;48.234;13.006;2024-02-28T14:26:35;12.10;70.10
25616;DHT22;13482;48.234;13.006;2024-02-28T14:29:06;12.10;70.10
25616;DHT22;13482;48.234;13.006;2024-02-28T14:31:35;12.10;70.00
25616;DHT22;13482;48.234;13.006;2024-02-28T14:34:02;12.10;69.90
25616;DHT22;13482;48.234;13.006;2024-02-28T14:36:32;12.10;69.90
25616;DHT22;13482;48.234;13.006;2024-02-28T14:39:00;12.00;69.80
25616;DHT22;13482;48.234;13.006;2024-02-28T14:41:28;12.00;69.80
25616;DHT22;13482;48.234;13.006;2024-02-28T14:43:56;12.00;69.80
25616;DHT22;13482;48.234;13.006;2024-02-28T14:46:24;11.90;69.80
25616;DHT22;13482;48.234;13.006;2024-02-28T14:48:51;11.90;69.90
25616;DHT22;13482;48.234;13.006;2024-02-28T14:51:20;11.90;69.90
25616;DHT22;13482;48.234;13.006;2024-02-28T14:53:48;11.90;69.90
25616;DHT22;13482;48.234;13.006;2024-02-28T14:56:15;11.90;69.90
25616;DHT22;13482;48.234;13.006;2024-02-28T14:58:43;11.90;69.90
25616;DHT22;13482;48.234;13.006;2024-02-28T15:01:14;11.80;69.90
25616;DHT22;13482;48.234;13.006;2024-02-28T15:03:42;11.80;70.00
25616;DHT22;13482;48.234;13.006;2024-02-28T15:06:10;11.80;70.00
25616;DHT22;13482;48.234;13.006;2024-02-28T15:08:40;11.80;70.10
25616;DHT22;13482;48.234;13.006;2024-02-28T15:11:07;11.80;70.10
25616;DHT22;13482;48.234;13.006;2024-02-28T15:13:35;11.80;70.00
25616;DHT22;13482;48.234;13.006;2024-02-28T15:16:03;11.80;70.00
25616;DHT22;13482;48.234;13.006;2024-02-28T15:18:32;11.80;70.00
25616;DHT22;13482;48.234;13.006;2024-02-28T15:21:00;11.80;70.00
25616;DHT22;13482;48.234;13.006;2024-02-28T15:23:29;11.70;70.00
25616;DHT22;13482;48.234;13.006;2024-02-28T15:25:58;11.70;70.00
25616;DHT22;13482;48.234;13.006;2024-02-28T15:28:27;11.70;70.00
25616;DHT22;13482;48.234;13.006;2024-02-28T15:30:54;11.70;69.90
25616;DHT22;13482;48.234;13.006;2024-02-28T15:33:22;11.70;69.90
25616;DHT22;13482;48.234;13.006;2024-02-28T15:35:50;11.70;69.90
25616;DHT22;13482;48.234;13.006;2024-02-28T15:38:18;11.60;69.90
25616;DHT22;13482;48.234;13.006;2024-02-28T15:40:46;11.60;70.00
25616;DHT22;13482;48.234;13.006;2024-02-28T15:43:13;11.60;70.00
25616;DHT22;13482;48.234;13.006;2024-02-28T15:45:42;11.60;70.00
25616;DHT22;13482;48.234;13.006;2024-02-28T15:48:10;11.60;70.00
25616;DHT22;13482;48.234;13.006;2024-02-28T15:50:38;11.60;70.00
25616;DHT22;13482;48.234;13.006;2024-02-28T15:53:06;11.60;70.00
25616;DHT22;13482;48.234;13.006;2024-02-28T15:55:34;11.60;70.00
25616;DHT22;13482;48.234;13.006;2024-02-28T15:58:01;11.60;70.00